Time;durP1;ratioP1;P1;durP2;ratioP2;P2;SDS_P1;SDS_P2;PMS_P1;PMS_P2;Temp;Humidity;BMP_temperature;BMP_pressure;BME280_temperature;BME280_humidity;BME280_pressure;Samples;Min_cycle;Max_cycle;Signal;HPM_P1;HPM_P2
2022/04/04 00:00:49;;;;;;;7.70;5.40;;;6.00;99.90;;;5.87;68.13;101368.78;5185746;28;20406;-68
2022/04/04 00:03:21;;;;;;;7.75;4.82;;;6.00;99.90;;;5.83;68.48;101381.41;5185350;28;20056;-67
2022/04/04 00:05:53;;;;;;;8.52;5.07;;;6.00;99.90;;;5.77;68.63;101374.16;5185849;28;20077;-68
2022/04/04 00:08:25;;;;;;;11.82;5.40;;;5.90;99.90;;;5.71;69.04;101372.06;5185986;28;20399;-68
2022/04/04 00:10:59;;;;;;;7.50;5.00;;;5.90;99.90;;;5.67;69.27;101374.34;5185573;28;20390;-68
2022/04/04 00:13:31;;;;;;;8.35;5.03;;;5.80;99.90;;;5.62;69.35;101371.50;5185341;28;20092;-68
2022/04/04 00:16:03;;;;;;;8.95;4.88;;;5.70;99.90;;;5.59;69.47;101366.13;5185315;28;20046;-67
2022/04/04 00:18:35;;;;;;;13.05;5.75;;;5.70;99.90;;;5.55;69.20;101363.25;5185610;28;20129;-67
2022/04/04 00:21:07;;;;;;;10.18;5.05;;;5.70;99.90;;;5.50;69.98;101365.53;5185267;28;20059;-67
2022/04/04 00:23:40;;;;;;;7.30;4.25;;;5.70;99.90;;;5.46;69.57;101363.53;5185060;28;20054;-68
2022/04/04 00:26:13;;;;;;;10.43;5.07;;;5.60;99.90;;;5.42;69.88;101361.56;5185435;28;20340;-67
2022/04/04 00:28:45;;;;;;;7.15;4.75;;;5.60;99.90;;;5.36;70.25;101356.91;5185226;28;20050;-67
2022/04/04 00:31:18;;;;;;;7.63;5.05;;;5.50;99.90;;;5.33;70.32;101351.50;5185138;28;20486;-66
2022/04/04 00:33:50;;;;;;;9.32;4.93;;;5.50;99.90;;;5.30;70.41;101351.34;5183918;28;20057;-67
2022/04/04 00:36:22;;;;;;;8.23;4.82;;;5.50;99.90;;;5.25;70.46;101347.56;5185129;28;20056;-66
2022/04/04 00:38:54;;;;;;;8.82;5.53;;;5.40;99.90;;;5.22;70.52;101341.31;5185081;28;20139;-65
2022/04/04 00:41:27;;;;;;;9.95;5.53;;;5.40;99.90;;;5.17;70.48;101352.22;5185122;28;20048;-66
2022/04/04 00:43:59;;;;;;;7.47;4.93;;;5.30;99.90;;;5.13;70.95;101346.75;5185113;28;20080;-68
2022/04/04 00:46:31;;;;;;;8.20;4.93;;;5.30;99.90;;;5.09;70.52;101352.53;5185466;28;20495;-68
2022/04/04 00:49:04;;;;;;;8.52;5.22;;;5.30;99.90;;;5.04;71.04;101339.31;5184914;28;20058;-68
2022/04/04 00:51:36;;;;;;;8.23;5.32;;;5.20;99.90;;;5.01;71.14;101338.19;5184507;28;20090;-68
2022/04/04 00:54:08;;;;;;;7.07;4.88;;;5.20;99.90;;;4.98;71.17;101338.91;5184801;28;20056;-68
2022/04/04 00:56:42;;;;;;;9.40;5.30;;;5.10;99.90;;;4.95;70.94;101341.25;5184836;28;20046;-68
2022/04/04 00:59:18;;;;;;;8.45;5.38;;;5.10;99.90;;;4.91;71.39;101334.13;5184732;28;20049;-67
2022/04/04 01:01:51;;;;;;;7.70;4.80;;;5.10;99.90;;;4.86;71.57;101340.66;5184084;28;20053;-68
2022/04/04 01:04:23;;;;;;;9.60;4.97;;;5.00;99.90;;;4.82;71.41;101339.56;5185093;28;20551;-66
2022/04/04 01:06:55;;;;;;;8.23;5.43;;;5.00;99.90;;;4.79;71.55;101339.38;5184816;28;20056;-68
2022/04/04 01:09:27;;;;;;;8.73;4.68;;;4.90;99.90;;;4.76;71.45;101327.91;5184786;28;20050;-68
2022/04/04 01:12:06;;;;;;;9.77;5.28;;;4.90;99.90;;;4.73;71.71;101326.03;5184291;28;20491;-67
2022/04/04 01:14:41;;;;;;;7.22;4.90;;;4.90;99.90;;;4.72;71.64;101326.84;5184539;28;20510;-68
2022/04/04 01:17:15;;;;;;;7.43;4.80;;;4.90;99.90;;;4.69;71.79;101320.56;5184680;28;20069;-68
2022/04/04 01:19:47;;;;;;;9.38;5.32;;;4.90;99.90;;;4.65;71.71;101309.16;5184671;28;20049;-68
2022/04/04 01:22:19;;;;;;;9.60;4.75;;;4.80;99.90;;;4.63;71.72;101319.38;5184328;28;20088;-68
2022/04/04 01:24:53;;;;;;;7.68;5.05;;;4.80;99.90;;;4.60;71.50;101313.09;5184325;28;20053;-68
2022/04/04 01:27:25;;;;;;;8.13;5.25;;;4.80;99.90;;;4.56;71.54;101300.78;5184768;28;20527;-68
2022/04/04 01:29:57;;;;;;;8.57;5.03;;;4.70;99.90;;;4.51;71.93;101300.50;5184395;28;20505;-67
2022/04/04 01:32:29;;;;;;;9.05;5.57;;;4.70;99.90;;;4.47;72.10;101295.91;5184035;28;20511;-70
2022/04/04 01:35:01;;;;;;;8.02;4.95;;;4.70;99.90;;;4.46;72.17;101294.13;5184676;28;20485;-67
2022/04/04 01:37:33;;;;;;;9.93;5.43;;;4.60;99.90;;;4.45;72.46;101294.91;5184323;28;20056;-67
2022/04/04 01:40:10;;;;;;;10.68;5.47;;;4.60;99.90;;;4.46;72.75;101296.69;5184627;28;20503;-67
2022/04/04 01:42:42;;;;;;;11.15;5.32;;;4.60;99.90;;;4.47;72.54;101289.84;5184256;28;20042;-68
2022/04/04 01:45:14;;;;;;;8.52;4.95;;;4.60;99.90;;;4.49;72.59;101289.13;5185646;28;20141;-68
2022/04/04 01:47:47;;;;;;;9.60;5.10;;;4.70;99.90;;;4.51;72.58;101291.84;5188104;28;20384;-68
2022/04/04 01:50:21;;;;;;;8.85;5.70;;;4.70;99.90;;;4.50;72.43;101279.72;5188321;28;20531;-67
2022/04/04 01:53:25;;;;;;;9.40;5.28;;;4.70;99.90;;;4.51;72.61;101285.00;5187890;28;20057;-68
2022/04/04 01:55:46;;;;;;;10.02;5.60;;;4.70;99.90;;;4.51;72.59;101277.25;5188106;28;20515;-67
2022/04/04 01:58:18;;;;;;;9.82;5.75;;;4.70;99.90;;;4.52;72.84;101275.56;5187812;28;20056;-67
2022/04/04 02:00:52;;;;;;;11.80;5.18;;;4.70;99.90;;;4.52;72.39;101271.28;5188147;28;20487;-67
2022/04/04 02:03:25;;;;;;;8.75;5.28;;;4.70;99.90;;;4.53;72.46;101262.75;5187659;28;20057;-68
2022/04/04 02:05:57;;;;;;;9.93;5.47;;;4.70;99.90;;;4.53;72.30;101269.59;5188038;28;20100;-67
2022/04/04 02:08:29;;;;;;;11.65;5.45;;;4.70;99.90;;;4.50;72.29;101266.78;5187796;28;20058;-64
2022/04/04 02:11:04;;;;;;;8.60;4.93;;;4.70;99.90;;;4.51;72.13;101264.34;5188062;28;20136;-67
2022/04/04 02:13:36;;;;;;;9.13;5.97;;;4.70;99.90;;;4.51;72.27;101263.44;5187622;28;20046;-67
2022/04/04 02:16:09;;;;;;;8.77;5.10;;;4.70;99.90;;;4.49;72.09;101257.25;5187706;28;20046;-67
2022/04/04 02:18:41;;;;;;;10.18;5.32;;;4.70;99.90;;;4.47;72.10;101262.34;5187761;28;20429;-68
2022/04/04 02:21:13;;;;;;;8.75;4.80;;;4.70;99.90;;;4.46;72.31;101260.56;5188001;28;20050;-68
2022/04/04 02:24:04;;;;;;;9.32;5.03;;;4.70;99.90;;;4.46;72.11;101255.41;5187539;28;20049;-68
2022/04/04 02:26:38;;;;;;;9.40;6.00;;;4.70;99.90;;;4.45;72.27;101251.03;5187679;28;20049;-67
2022/04/04 02:29:10;;;;;;;8.23;5.57;;;4.70;99.90;;;4.42;72.29;101244.75;5187678;28;20491;-67
2022/04/04 02:31:42;;;;;;;9.63;5.32;;;4.60;99.90;;;4.35;72.07;101249.50;5187131;28;20494;-67
2022/04/04 02:34:14;;;;;;;9.57;5.25;;;4.60;99.90;;;4.29;72.23;101241.34;5187399;28;20095;-67
2022/04/04 02:36:46;;;;;;;9.65;5.75;;;4.50;99.90;;;4.23;72.37;101233.19;5187374;28;20085;-68
2022/04/04 02:39:18;;;;;;;8.90;5.35;;;4.50;99.90;;;4.18;72.57;101236.28;5187240;28;20065;-67
2022/04/04 02:41:52;;;;;;;9.60;5.78;;;4.40;99.90;;;4.13;72.80;101227.34;5187100;28;20494;-66
2022/04/04 02:44:24;;;;;;;11.57;6.65;;;4.40;99.90;;;4.07;73.09;101226.13;5187595;28;20420;-67
2022/04/04 02:46:56;;;;;;;9.38;5.25;;;4.30;99.90;;;4.03;73.04;101226.69;5187195;28;20505;-67
2022/04/04 02:49:29;;;;;;;8.35;5.55;;;4.20;99.90;;;3.98;73.30;101216.88;5187336;28;20050;-68
2022/04/04 02:52:01;;;;;;;9.10;5.65;;;4.20;99.90;;;3.92;73.26;101214.78;5186905;28;20054;-68
2022/04/04 02:54:33;;;;;;;9.15;5.78;;;4.20;99.90;;;3.85;73.68;101210.00;5186975;28;20050;-68
2022/04/04 02:57:06;;;;;;;9.13;5.00;;;4.10;99.90;;;3.81;74.20;101203.72;5185745;28;20046;-68
2022/04/04 02:59:38;;;;;;;9.95;5.80;;;4.00;99.90;;;3.79;74.40;101199.25;5186912;28;20057;-67
2022/04/04 03:02:10;;;;;;;9.40;5.30;;;4.00;99.90;;;3.74;73.99;101200.63;5186602;28;20046;-68
2022/04/04 03:04:42;;;;;;;9.52;5.53;;;4.00;99.90;;;3.69;74.48;101191.66;5186967;28;20049;-67
2022/04/04 03:07:14;;;;;;;8.90;5.43;;;3.90;99.90;;;3.66;74.51;101186.31;5186880;28;20392;-68
2022/04/04 03:09:46;;;;;;;10.32;6.18;;;3.90;99.90;;;3.63;74.83;101188.66;5186656;28;20056;-66
2022/04/04 03:12:19;;;;;;;16.77;8.63;;;3.80;99.90;;;3.61;75.15;101190.25;5186156;28;20137;-66
2022/04/04 03:14:51;;;;;;;19.20;10.23;;;3.80;99.90;;;3.56;75.48;101178.72;5186802;28;20049;-68
2022/04/04 03:17:23;;;;;;;17.95;8.98;;;3.80;99.90;;;3.56;75.65;101179.63;5186674;28;20392;-67
2022/04/04 03:19:55;;;;;;;12.30;6.78;;;3.70;99.90;;;3.53;75.64;101174.28;5186486;28;20049;-67
2022/04/04 03:22:27;;;;;;;11.88;6.30;;;3.70;99.90;;;3.53;75.80;101175.16;5186091;28;20042;-67
2022/04/04 03:24:59;;;;;;;10.95;6.35;;;3.70;99.90;;;3.52;76.14;101169.88;5186392;28;20104;-67
2022/04/04 03:27:33;;;;;;;11.15;5.93;;;3.70;99.90;;;3.51;75.79;101166.41;5186393;28;20049;-67
2022/04/04 03:30:07;;;;;;;13.88;6.57;;;3.70;99.90;;;3.50;75.81;101159.47;5186348;28;20120;-66
2022/04/04 03:32:39;;;;;;;11.82;5.95;;;3.70;99.90;;;3.53;75.94;101159.69;5185723;28;20053;-66
2022/04/04 03:35:14;;;;;;;13.05;5.88;;;3.70;99.90;;;3.54;76.28;101153.75;5186185;28;20054;-66
2022/04/04 03:37:50;;;;;;;12.35;6.15;;;3.70;99.90;;;3.60;76.07;101153.28;5186296;28;20045;-67
2022/04/04 03:40:23;;;;;;;12.40;6.00;;;3.80;99.90;;;3.61;75.98;101156.75;5185788;28;20060;-68
2022/04/04 03:42:59;;;;;;;14.90;5.75;;;3.80;99.90;;;3.64;75.68;101152.69;5185751;28;20046;-68
2022/04/04 03:45:32;;;;;;;9.90;5.43;;;3.80;99.90;;;3.67;75.73;101146.84;5185963;28;20051;-68
2022/04/04 03:48:05;;;;;;;11.75;6.43;;;3.90;99.90;;;3.67;75.75;101146.84;5186138;28;20069;-67
2022/04/04 03:50:37;;;;;;;12.88;6.50;;;3.90;99.90;;;3.67;75.61;101144.28;5185904;28;20046;-68
2022/04/04 03:53:09;;;;;;;18.05;7.30;;;3.90;99.90;;;3.65;75.78;101135.53;5185510;28;20054;-68
2022/04/04 03:55:43;;;;;;;14.15;6.05;;;3.90;99.90;;;3.65;75.82;101143.25;5185722;28;20050;-67
2022/04/04 03:58:16;;;;;;;16.23;6.32;;;3.90;99.90;;;3.65;75.76;101130.38;5186042;28;20140;-67
2022/04/04 04:00:48;;;;;;;14.07;6.43;;;3.90;99.90;;;3.65;75.37;101128.72;5185797;28;20050;-68
2022/04/04 04:03:20;;;;;;;11.15;5.93;;;3.90;99.90;;;3.67;75.31;101123.66;5185647;28;20046;-68
2022/04/04 04:06:11;;;;;;;16.27;6.43;;;3.90;99.90;;;3.64;75.44;101124.31;5185747;28;20414;-68
2022/04/04 04:08:46;;;;;;;11.32;5.57;;;3.90;99.90;;;3.65;75.45;101117.47;5185558;28;20057;-68
2022/04/04 04:11:18;;;;;;;10.73;5.40;;;3.90;99.90;;;3.71;75.39;101116.19;5185504;28;20045;-67
2022/04/04 04:13:52;;;;;;;11.05;5.78;;;3.90;99.90;;;3.74;75.07;101121.56;5185148;28;20042;-67
2022/04/04 04:16:24;;;;;;;14.30;6.07;;;4.00;99.90;;;3.79;75.20;101116.75;5185526;28;20050;-67
2022/04/04 04:18:56;;;;;;;12.25;5.75;;;4.00;99.90;;;3.83;74.79;101112.66;5185418;28;20477;-67
2022/04/04 04:21:28;;;;;;;12.70;5.57;;;4.00;99.90;;;3.87;74.37;101102.66;5185327;28;20511;-65
2022/04/04 04:24:00;;;;;;;10.50;5.30;;;4.00;99.90;;;3.87;74.21;101105.25;5185352;28;20049;-68
2022/04/04 04:26:32;;;;;;;9.98;5.03;;;4.10;99.90;;;3.90;73.73;101109.69;5185502;28;20056;-68
2022/04/04 04:29:06;;;;;;;11.32;5.07;;;4.10;99.90;;;3.90;73.50;101100.28;5185175;28;20053;-67
2022/04/04 04:31:38;;;;;;;10.27;5.13;;;4.10;99.90;;;3.89;73.75;101100.19;5185129;28;20109;-68
2022/04/04 04:34:10;;;;;;;9.13;4.93;;;4.10;99.90;;;3.91;73.80;101096.94;5342119;22;20041;-68
2022/04/04 04:36:42;;;;;;;9.40;5.32;;;4.10;99.90;;;3.94;73.45;101097.13;5205301;28;20045;-68
2022/04/04 04:39:14;;;;;;;13.68;5.82;;;4.20;99.90;;;4.02;72.78;101090.75;5205406;28;20049;-68
2022/04/04 04:41:46;;;;;;;8.85;4.43;;;4.20;99.90;;;4.01;72.84;101088.97;5205170;28;20046;-68
2022/04/04 04:44:19;;;;;;;10.40;5.07;;;4.20;99.90;;;4.00;73.00;101087.19;5205494;28;20045;-68
2022/04/04 04:46:52;;;;;;;10.23;5.00;;;4.20;99.90;;;4.11;72.20;101064.69;5205277;28;20045;-68
2022/04/04 04:49:26;;;;;;;13.30;5.65;;;4.30;99.90;;;4.12;71.88;101071.63;5205562;28;20096;-68
2022/04/04 04:51:58;;;;;;;11.23;4.97;;;4.30;99.90;;;4.16;71.90;101064.97;5205063;28;20565;-68
2022/04/04 04:54:31;;;;;;;9.65;5.18;;;4.30;99.90;;;4.14;71.92;101066.56;5205152;28;20050;-68
2022/04/04 04:57:03;;;;;;;10.63;5.10;;;4.30;99.90;;;4.12;72.02;101065.59;5205194;28;20183;-68
2022/04/04 04:59:36;;;;;;;12.68;6.30;;;4.30;99.90;;;4.12;71.92;101056.16;5205057;28;20424;-68
2022/04/04 05:02:08;;;;;;;10.98;5.45;;;4.30;99.90;;;4.09;72.12;101059.41;5204996;28;20382;-68
2022/04/04 05:04:43;;;;;;;11.13;5.32;;;4.30;99.90;;;4.13;72.11;101052.78;5205232;28;20045;-68
2022/04/04 05:07:16;;;;;;;10.30;5.68;;;4.40;99.90;;;4.14;72.32;101045.94;5205197;28;20500;-68
2022/04/04 05:09:48;;;;;;;12.45;4.82;;;4.40;99.90;;;4.18;72.23;101050.50;5205295;28;20479;-68
2022/04/04 05:12:20;;;;;;;10.35;4.75;;;4.40;99.90;;;4.23;71.73;101046.50;5204736;28;20053;-68
2022/04/04 05:14:54;;;;;;;10.95;5.53;;;4.40;99.90;;;4.23;71.68;101049.97;5205214;28;20060;-68
2022/04/04 05:17:26;;;;;;;12.57;5.30;;;4.40;99.90;;;4.23;71.84;101043.91;5204999;28;20049;-68
2022/04/04 05:19:58;;;;;;;11.57;5.47;;;4.40;99.90;;;4.26;71.93;101045.03;5205939;28;20057;-68
2022/04/04 05:22:30;;;;;;;11.55;5.20;;;4.50;99.90;;;4.28;72.07;101042.53;5208785;28;20049;-68
2022/04/04 05:25:02;;;;;;;11.77;4.90;;;4.50;99.90;;;4.33;72.11;101042.03;5209115;28;20056;-68
2022/04/04 05:27:36;;;;;;;10.73;5.25;;;4.50;99.90;;;4.41;71.79;101036.47;5209354;28;20391;-68
2022/04/04 05:30:11;;;;;;;12.18;5.63;;;4.60;99.90;;;4.43;71.57;101030.59;5209128;28;20056;-68
2022/04/04 05:32:43;;;;;;;11.07;5.40;;;4.60;99.90;;;4.49;71.34;101028.38;5208503;28;20067;-68
2022/04/04 05:35:17;;;;;;;9.73;4.43;;;4.70;99.90;;;4.54;70.71;101021.84;5208993;28;20060;-68
2022/04/04 05:37:54;;;;;;;10.75;5.25;;;4.70;99.90;;;4.62;70.50;101025.78;5208910;28;20065;-69
2022/04/04 05:40:26;;;;;;;10.00;5.35;;;4.70;99.90;;;4.69;70.20;101014.13;5208878;28;20466;-69
2022/04/04 05:43:00;;;;;;;9.57;4.47;;;4.80;99.90;;;4.75;69.55;101019.69;5208445;28;20041;-69
2022/04/04 05:45:35;;;;;;;10.82;5.28;;;4.90;99.90;;;4.84;69.36;101016.78;5208854;28;20456;-69
2022/04/04 05:48:07;;;;;;;9.48;4.85;;;4.90;99.90;;;4.84;68.98;101011.63;5208882;28;20147;-69
2022/04/04 05:50:39;;;;;;;11.82;5.05;;;5.00;99.90;;;4.94;68.42;101019.13;5208792;28;20049;-69
2022/04/04 05:53:11;;;;;;;10.98;5.10;;;5.10;99.90;;;5.00;68.54;101013.44;5208302;28;20056;-68
2022/04/04 05:55:44;;;;;;;10.00;5.00;;;5.10;99.90;;;5.02;68.19;101010.16;5208528;28;20059;-68
2022/04/04 05:58:16;;;;;;;9.73;5.00;;;5.20;99.90;;;5.12;68.45;101017.66;5208711;28;20091;-67
2022/04/04 06:00:49;;;;;;;10.50;5.45;;;5.20;99.90;;;5.27;67.74;101009.00;5209301;28;20137;-67
2022/04/04 06:03:21;;;;;;;10.27;4.25;;;5.30;99.90;;;5.40;67.05;101006.34;5208198;28;20041;-67
2022/04/04 06:05:54;;;;;;;9.10;4.82;;;5.40;99.90;;;5.55;65.75;101007.28;5208425;28;20050;-67
2022/04/04 06:08:26;;;;;;;10.15;4.60;;;5.50;99.90;;;5.64;64.90;101005.19;5208505;28;20056;-67
2022/04/04 06:10:58;;;;;;;10.02;4.78;;;5.60;99.90;;;5.76;65.17;101001.53;5208441;28;20053;-67
2022/04/04 06:13:30;;;;;;;9.00;4.35;;;5.70;99.90;;;5.91;65.34;100995.56;5208002;28;20056;-67
2022/04/04 06:16:04;;;;;;;9.45;4.95;;;5.90;99.90;;;6.19;64.13;100997.09;5208396;28;20056;-67
2022/04/04 06:18:37;;;;;;;11.50;4.70;;;6.00;99.90;;;6.43;62.23;100992.41;5208155;28;20140;-67
2022/04/04 06:21:09;;;;;;;9.38;4.78;;;6.20;99.60;;;6.84;61.70;100992.00;5208320;28;20065;-67
2022/04/04 06:23:41;;;;;;;8.95;4.20;;;6.40;99.50;;;8.02;57.88;100975.50;5207960;28;20046;-67
2022/04/04 06:26:13;;;;;;;8.52;4.18;;;7.00;98.70;;;8.58;55.61;100982.50;5208195;28;20413;-67
2022/04/04 06:28:45;;;;;;;10.93;4.32;;;7.50;97.10;;;9.04;52.80;100978.44;5208059;28;20132;-68
2022/04/04 06:31:19;;;;;;;7.97;4.13;;;7.90;94.20;;;9.29;52.96;100981.28;5207675;28;20053;-67
2022/04/04 06:33:51;;;;;;;8.57;4.35;;;8.30;93.80;;;9.45;51.39;100972.41;5207609;28;20054;-67
2022/04/04 06:36:26;;;;;;;6.57;3.83;;;8.50;91.80;;;9.45;51.02;100977.63;5208059;28;20053;-67
2022/04/04 06:38:59;;;;;;;7.75;3.80;;;8.70;91.00;;;9.50;49.62;100971.78;5207939;28;20065;-67
2022/04/04 06:41:31;;;;;;;8.82;3.90;;;8.80;87.30;;;9.21;50.39;100977.50;5207489;28;20053;-67
2022/04/04 06:44:04;;;;;;;6.72;4.03;;;8.70;87.40;;;9.00;51.20;100963.53;5207686;28;20045;-67
2022/04/04 06:46:37;;;;;;;6.50;3.65;;;8.60;88.00;;;8.97;51.22;100965.19;5207802;28;20405;-67
2022/04/04 06:49:09;;;;;;;8.10;4.15;;;8.60;87.60;;;9.05;50.89;100962.03;5207707;28;20060;-67
2022/04/04 06:51:42;;;;;;;8.48;4.07;;;8.60;87.70;;;9.28;50.40;100947.41;5207478;28;20119;-67
2022/04/04 06:54:13;;;;;;;11.05;4.05;;;8.70;87.30;;;9.46;49.66;100946.47;5207839;28;20048;-67
2022/04/04 06:56:47;;;;;;;7.95;4.30;;;8.80;85.90;;;9.96;48.89;100947.63;5207714;28;20136;-68
2022/04/04 06:59:19;;;;;;;8.35;3.80;;;9.10;85.70;;;10.24;48.33;100938.34;5207491;28;20053;-67
2022/04/04 07:01:52;;;;;;;7.25;3.90;;;9.30;84.40;;;10.41;46.85;100942.44;5207105;28;20084;-67
2022/04/04 07:04:24;;;;;;;9.30;4.05;;;9.50;81.20;;;10.41;46.67;100929.44;5207645;28;20514;-67
2022/04/04 07:06:56;;;;;;;10.10;4.85;;;9.60;79.80;;;10.30;47.21;100925.50;5207238;28;20057;-67
2022/04/04 07:09:29;;;;;;;7.90;4.00;;;9.60;80.00;;;10.30;47.32;100925.50;5207201;28;20054;-67
2022/04/04 07:12:01;;;;;;;6.10;3.45;;;9.60;79.80;;;10.29;47.25;100926.34;5206851;28;20092;-68
2022/04/04 07:14:33;;;;;;;7.53;3.85;;;9.60;79.40;;;10.34;46.46;100914.38;5207012;28;20074;-67
2022/04/04 07:17:07;;;;;;;7.40;3.90;;;9.70;77.70;;;10.48;47.00;100910.56;5206967;28;20045;-67
2022/04/04 07:19:39;;;;;;;7.35;3.97;;;9.80;78.80;;;11.30;44.80;100904.78;5207234;28;20054;-67
2022/04/04 07:22:11;;;;;;;7.05;3.40;;;10.10;76.60;;;11.89;43.42;100903.25;5206774;28;20065;-67
2022/04/04 07:24:43;;;;;;;6.38;3.55;;;10.60;75.00;;;12.54;42.22;100903.44;5206983;28;20053;-68
2022/04/04 07:27:16;;;;;;;5.43;3.45;;;11.00;73.70;;;13.55;39.84;100895.66;5206802;28;20049;-68
2022/04/04 07:29:48;;;;;;;5.40;3.13;;;11.70;70.70;;;14.54;38.06;100891.78;5207077;28;20057;-68
2022/04/04 07:32:21;;;;;;;6.45;3.10;;;12.40;67.80;;;15.48;36.38;100888.28;5206666;28;20107;-68
2022/04/04 07:34:53;;;;;;;6.30;3.45;;;13.30;64.80;;;16.64;34.26;100880.28;5206712;28;20049;-68
2022/04/04 07:37:25;;;;;;;6.72;3.13;;;14.10;62.00;;;17.98;31.37;100880.63;5206720;28;20052;-68
2022/04/04 07:39:58;;;;;;;6.07;3.58;;;15.20;57.70;;;18.53;30.58;100878.25;5206565;28;20060;-68
2022/04/04 07:42:29;;;;;;;6.03;3.50;;;15.80;55.90;;;19.09;29.26;100875.75;5205795;28;20140;-64
2022/04/04 07:45:01;;;;;;;5.72;3.05;;;16.40;53.50;;;19.12;31.63;100870.50;5206488;28;20045;-65
2022/04/04 07:47:35;;;;;;;5.07;2.42;;;16.70;56.40;;;19.78;29.63;100860.81;5206512;28;20049;-65
2022/04/04 07:50:11;;;;;;;6.18;2.47;;;17.30;53.60;;;20.33;28.01;100860.63;5206206;28;20072;-65
2022/04/04 07:52:43;;;;;;;3.75;2.40;;;17.80;50.90;;;20.32;27.79;100850.94;5206045;28;20053;-64
2022/04/04 07:55:16;;;;;;;6.43;2.78;;;18.00;50.20;;;19.96;26.87;100856.38;5206487;28;20052;-69
2022/04/04 07:57:48;;;;;;;5.20;2.60;;;17.90;48.50;;;19.18;27.87;100849.38;5206899;28;20405;-69
2022/04/04 08:00:21;;;;;;;4.57;2.60;;;17.40;49.00;;;18.04;28.98;100847.25;5206455;28;20050;-68
2022/04/04 08:02:55;;;;;;;4.28;2.05;;;16.70;49.30;;;16.68;30.50;100837.31;5206693;28;20056;-69
2022/04/04 08:05:27;;;;;;;4.65;2.38;;;15.90;50.20;;;15.42;31.60;100846.16;5206659;28;20056;-69
2022/04/04 08:07:59;;;;;;;4.70;2.17;;;15.00;50.80;;;14.15;33.59;100848.16;5206661;28;20045;-69
2022/04/04 08:10:31;;;;;;;5.43;2.38;;;14.00;52.00;;;13.06;35.75;100836.84;5206416;28;20056;-68
2022/04/04 08:13:03;;;;;;;6.18;2.50;;;13.00;54.00;;;12.30;37.58;100821.69;5206133;28;20045;-68
2022/04/04 08:15:35;;;;;;;5.43;2.28;;;12.30;56.40;;;11.71;39.24;100833.84;5206402;28;20046;-68
2022/04/04 08:18:09;;;;;;;4.65;2.30;;;11.70;57.70;;;11.27;38.91;100825.50;5206338;28;20056;-68
2022/04/04 08:20:41;;;;;;;2.50;2.08;;;11.20;57.90;;;10.79;40.45;100821.31;5205881;28;20143;-68
2022/04/04 08:23:14;;;;;;;3.60;2.10;;;10.70;59.40;;;10.45;41.86;100814.06;5206058;28;20144;-68
2022/04/04 08:25:46;;;;;;;4.90;2.40;;;10.40;60.90;;;10.39;42.04;100811.22;5206213;28;20045;-68
2022/04/04 08:28:18;;;;;;;5.68;2.30;;;10.20;61.70;;;10.42;42.54;100803.50;5205995;28;20081;-68
2022/04/04 08:30:51;;;;;;;3.95;2.15;;;10.10;62.70;;;10.72;42.38;100797.59;5206182;28;20046;-69
2022/04/04 08:33:25;;;;;;;5.53;1.92;;;10.20;63.20;;;10.96;42.04;100792.31;5205990;28;20056;-68
2022/04/04 08:35:58;;;;;;;4.60;2.30;;;10.30;63.30;;;11.04;41.17;100788.25;5206202;28;20045;-68
2022/04/04 08:38:30;;;;;;;3.80;2.50;;;10.40;62.70;;;11.04;41.94;100785.63;5206093;28;20050;-68
2022/04/04 08:41:04;;;;;;;5.63;2.70;;;10.50;63.20;;;11.24;42.33;100778.44;5206109;28;20479;-68
2022/04/04 08:43:38;;;;;;;3.67;2.10;;;10.60;64.00;;;11.71;40.67;100773.78;5205628;28;20046;-69
2022/04/04 08:46:11;;;;;;;3.00;2.03;;;10.80;62.90;;;11.74;40.49;100766.94;5206045;28;20061;-68
2022/04/04 08:48:45;;;;;;;3.95;2.13;;;11.00;62.40;;;11.74;40.83;100766.06;5205585;28;20052;-68
2022/04/04 08:51:17;;;;;;;4.18;2.58;;;11.00;62.80;;;11.69;41.19;100758.97;5205480;28;20049;-68
2022/04/04 08:53:50;;;;;;;3.88;2.42;;;11.10;63.10;;;11.67;40.72;100754.53;5205470;28;20050;-68
2022/04/04 08:56:24;;;;;;;3.78;2.40;;;11.10;62.20;;;11.45;41.18;100763.44;5205544;28;20054;-69
2022/04/04 08:58:57;;;;;;;5.90;3.35;;;11.00;62.80;;;11.41;41.63;100745.94;5205920;28;20053;-68
2022/04/04 09:01:29;;;;;;;5.80;2.88;;;10.90;63.00;;;11.44;41.26;100751.25;5205605;28;20049;-68
2022/04/04 09:04:17;;;;;;;4.35;2.97;;;10.90;62.90;;;11.46;40.87;100749.56;5205711;28;20095;-68
2022/04/04 09:06:52;;;;;;;4.63;2.67;;;10.90;62.60;;;11.39;40.79;100740.66;5205299;28;20053;-68
2022/04/04 09:09:27;;;;;;;4.30;2.40;;;10.90;62.20;;;11.29;41.43;100735.13;5205553;28;20049;-69
2022/04/04 09:12:06;;;;;;;;;;;10.80;62.70;;;11.27;41.93;100731.56;5205905;28;20076;-68
2022/04/04 09:14:44;;;;;;;3.60;2.22;;;10.80;63.60;;;11.36;41.01;100726.63;5205168;28;19921;-68
2022/04/04 09:17:18;;;;;;;3.70;2.40;;;10.90;62.70;;;11.29;40.99;100725.56;5205543;28;20077;-68
2022/04/04 09:19:52;;;;;;;4.38;2.28;;;10.90;62.40;;;11.23;41.46;100725.38;5205382;28;20045;-69
2022/04/04 09:22:24;;;;;;;5.90;2.33;;;10.80;62.70;;;11.19;41.49;100717.41;5205431;28;20067;-68
2022/04/04 09:24:59;;;;;;;6.72;2.70;;;10.80;62.80;;;10.94;41.64;100720.94;5205461;28;20045;-68
2022/04/04 09:27:34;;;;;;;2.90;1.92;;;10.70;62.50;;;10.83;42.14;100702.38;5205035;28;20099;-68
2022/04/04 09:30:09;;;;;;;4.25;2.25;;;10.60;63.20;;;10.73;41.96;100700.28;5205526;28;20140;-68
2022/04/04 09:32:44;;;;;;;3.88;2.30;;;10.50;62.90;;;10.60;42.14;100693.78;5204743;28;20052;-69
2022/04/04 09:35:18;;;;;;;4.53;2.30;;;10.40;63.10;;;10.56;42.58;100687.59;5205027;28;20056;-68
2022/04/04 09:37:52;;;;;;;5.28;2.50;;;10.30;63.80;;;10.44;42.75;100688.91;5205345;28;20407;-68
2022/04/04 09:40:25;;;;;;;5.00;2.80;;;10.20;63.80;;;10.46;43.03;100675.09;5205354;28;20049;-68
2022/04/04 09:43:01;;;;;;;3.33;2.13;;;10.20;64.40;;;10.47;42.68;100676.84;5205219;28;20453;-68
2022/04/04 09:45:33;;;;;;;4.85;2.33;;;10.20;64.10;;;10.46;42.78;100676.81;5205249;28;20076;-68
2022/04/04 09:48:07;;;;;;;5.55;2.75;;;10.20;64.30;;;10.49;42.68;100669.97;5204828;28;20049;-68
2022/04/04 09:50:45;;;;;;;4.68;2.42;;;10.20;64.20;;;10.56;42.29;100666.75;5204990;28;20053;-68
2022/04/04 09:53:19;;;;;;;5.05;2.47;;;10.20;63.70;;;10.67;42.95;100660.97;5204942;28;20049;-68
2022/04/04 09:55:55;;;;;;;5.53;2.22;;;10.30;64.70;;;10.82;41.91;100648.41;5205150;28;20084;-68
2022/04/04 09:58:29;;;;;;;4.78;2.08;;;10.40;64.00;;;10.73;41.06;100642.94;5204964;28;20168;-68
2022/04/04 10:01:02;;;;;;;3.60;2.20;;;10.40;62.20;;;10.58;41.61;100641.63;5205102;28;20554;-68
2022/04/04 10:03:36;;;;;;;3.88;1.92;;;10.30;63.00;;;10.55;41.69;100644.09;5204948;28;20053;-69
2022/04/04 10:06:12;;;;;;;3.70;2.20;;;10.20;62.70;;;10.49;41.92;100636.09;5206330;28;20080;-68
2022/04/04 10:08:45;;;;;;;3.00;1.83;;;10.20;63.00;;;10.45;42.10;100631.63;5209178;28;20061;-68
2022/04/04 10:11:17;;;;;;;3.78;2.30;;;10.20;63.30;;;10.30;42.57;100620.69;5208845;28;20084;-68
2022/04/04 10:13:49;;;;;;;2.70;2.00;;;10.10;63.60;;;10.27;42.23;100626.69;5208925;28;20053;-68
2022/04/04 10:16:23;;;;;;;3.95;2.10;;;10.10;63.30;;;10.26;42.93;100626.66;5208219;28;20056;-68
2022/04/04 10:18:57;;;;;;;2.67;2.22;;;10.10;64.60;;;10.25;42.40;100619.66;5208864;28;20071;-68
2022/04/04 10:21:30;;;;;;;3.67;2.22;;;10.00;63.80;;;10.26;42.53;100618.81;5208297;28;20050;-68
2022/04/04 10:24:05;;;;;;;3.47;1.90;;;10.00;63.90;;;10.20;43.03;100629.88;5208641;28;20052;-68
2022/04/04 10:26:38;;;;;;;2.72;2.10;;;9.90;65.00;;;10.11;43.58;100616.56;5208701;28;20140;-68
2022/04/04 10:29:14;;;;;;;5.70;2.53;;;9.90;65.10;;;10.07;43.76;100612.97;5208250;28;20140;-68
2022/04/04 10:31:49;;;;;;;5.25;2.22;;;9.90;65.10;;;10.16;43.52;100606.28;5208034;28;20095;-68
2022/04/04 10:34:23;;;;;;;4.53;2.60;;;9.90;65.10;;;10.11;44.08;100610.47;5278478;22;20045;-63
2022/04/04 10:37:00;;;;;;;2.95;2.15;;;9.90;65.70;;;10.10;44.42;100601.75;5228317;28;20049;-63
2022/04/04 10:39:41;;;;;;;3.42;1.92;;;9.90;66.10;;;10.12;44.54;100600.09;5228578;28;20048;-63
2022/04/04 10:42:31;;;;;;;2.47;2.03;;;9.90;66.50;;;10.04;45.12;100592.03;5228520;28;20076;-63
2022/04/04 10:45:06;;;;;;;4.65;2.47;;;9.90;67.00;;;10.04;45.04;100592.03;5228751;28;20056;-62